Time;durP1;ratioP1;P1;durP2;ratioP2;P2;SDS_P1;SDS_P2;PMS_P1;PMS_P2;Temp;Humidity;BMP_temperature;BMP_pressure;BME280_temperature;BME280_humidity;BME280_pressure;Samples;Min_cycle;Max_cycle;Signal;HPM_P1;HPM_P2
2021/10/27 00:01:48;;;;;;;17.63;8.60;;;;;;;-141.50;100.00;63355.56;4896975;29;20056;-78
2021/10/27 00:04:16;;;;;;;17.98;9.48;;;;;;;-141.50;100.00;63355.56;4893457;29;20055;-78
2021/10/27 00:06:43;;;;;;;20.15;9.90;;;;;;;-141.50;100.00;63355.56;4911143;29;20059;-79
2021/10/27 00:09:10;;;;;;;17.85;9.20;;;;;;;-141.50;100.00;63355.56;4898693;29;20569;-78
2021/10/27 00:11:36;;;;;;;16.85;9.10;;;;;;;-141.50;100.00;63355.56;4900098;29;20124;-76
2021/10/27 00:14:03;;;;;;;17.88;9.05;;;;;;;-141.50;100.00;63355.56;4918766;29;20521;-79
2021/10/27 00:16:31;;;;;;;20.35;9.57;;;;;;;-141.50;100.00;63355.56;4902580;29;20518;-77
2021/10/27 00:18:57;;;;;;;17.92;9.57;;;;;;;-141.50;100.00;63355.56;4900655;29;20643;-78
2021/10/27 00:21:24;;;;;;;17.77;9.82;;;;;;;-141.50;100.00;63355.56;4901465;29;20052;-79
2021/10/27 00:23:51;;;;;;;18.70;10.00;;;;;;;-141.50;100.00;63355.56;4899839;29;20127;-78
2021/10/27 00:26:18;;;;;;;14.95;9.40;;;;;;;-141.50;100.00;63355.56;4899217;29;20090;-79
2021/10/27 00:28:45;;;;;;;21.35;10.63;;;;;;;-141.50;100.00;63355.56;4901111;29;20054;-77
2021/10/27 00:31:12;;;;;;;21.27;10.40;;;;;;;-141.50;100.00;63355.56;4923794;29;20105;-79
2021/10/27 00:33:40;;;;;;;18.92;10.52;;;;;;;-141.50;100.00;63355.56;4910977;29;20080;-77
2021/10/27 00:36:07;;;;;;;19.85;10.13;;;;;;;-141.50;100.00;63355.56;4927472;29;20094;-78
2021/10/27 00:38:37;;;;;;;21.10;10.30;;;;;;;-141.50;100.00;63355.56;4911566;29;20052;-79
2021/10/27 00:41:09;;;;;;;22.90;10.35;;;;;;;-141.50;100.00;63355.56;4926749;29;20075;-78
2021/10/27 00:43:37;;;;;;;21.60;11.63;;;;;;;-141.50;100.00;63355.56;4910690;29;20127;-79
2021/10/27 00:46:16;;;;;;;18.23;10.63;;;;;;;-141.50;100.00;63355.56;4910803;29;20052;-78
2021/10/27 00:48:44;;;;;;;20.33;11.18;;;;;;;-141.50;100.00;63355.56;4910212;29;20113;-78
2021/10/27 00:51:15;;;;;;;21.73;11.63;;;;;;;-141.50;100.00;63355.56;4925411;29;20284;-78
2021/10/27 00:53:44;;;;;;;21.75;11.27;;;;;;;-141.50;100.00;63355.56;4925456;29;20048;-78
2021/10/27 00:56:17;;;;;;;21.80;11.32;;;;;;;-141.50;100.00;63355.56;4907952;29;20047;-78
2021/10/27 00:58:47;;;;;;;19.65;11.38;;;;;;;-141.50;100.00;63355.56;4909742;29;20044;-78
2021/10/27 01:01:14;;;;;;;20.88;12.02;;;;;;;-141.50;100.00;63355.56;4924246;29;20060;-78
2021/10/27 01:03:41;;;;;;;23.00;11.57;;;;;;;-141.50;100.00;63355.56;4923452;29;20453;-79
2021/10/27 01:06:08;;;;;;;24.60;12.07;;;;;;;-141.50;100.00;63355.56;4909669;29;20072;-78
2021/10/27 01:08:35;;;;;;;23.95;11.38;;;;;;;-141.50;100.00;63355.56;4910824;29;20171;-78
2021/10/27 01:11:03;;;;;;;25.50;12.82;;;;;;;-141.50;100.00;63355.56;4923760;29;20164;-78
2021/10/27 01:13:31;;;;;;;19.30;12.07;;;;;;;-141.50;100.00;63355.56;4898065;29;20067;-79
2021/10/27 01:15:58;;;;;;;23.02;12.25;;;;;;;-141.50;100.00;63355.56;4898255;29;20060;-78
2021/10/27 01:18:25;;;;;;;23.30;12.30;;;;;;;-141.50;100.00;63355.56;4897391;29;20488;-78
2021/10/27 01:20:51;;;;;;;21.25;12.43;;;;;;;-141.50;100.00;63355.56;4897842;29;20063;-77
2021/10/27 01:23:19;;;;;;;27.00;12.27;;;;;;;-141.50;100.00;63355.56;4897351;29;20147;-77
2021/10/27 01:25:46;;;;;;;19.10;12.25;;;;;;;-141.50;100.00;63355.56;4897087;29;20134;-77
2021/10/27 01:28:12;;;;;;;28.15;12.40;;;;;;;-141.50;100.00;63355.56;4888238;29;20072;-79
2021/10/27 01:30:39;;;;;;;22.02;12.60;;;;;;;-141.50;100.00;63355.56;4896805;29;20143;-80
2021/10/27 01:33:06;;;;;;;23.55;12.68;;;;;;;-141.50;100.00;63355.56;4886837;29;20311;-76
2021/10/27 01:35:32;;;;;;;24.55;12.68;;;;;;;-141.50;100.00;63355.56;4894509;29;20489;-77
2021/10/27 01:37:59;;;;;;;23.40;12.73;;;;;;;-141.50;100.00;63355.56;4888898;29;20048;-76
2021/10/27 01:40:26;;;;;;;23.50;13.15;;;;;;;-141.50;100.00;63355.56;4915769;29;20054;-79
2021/10/27 01:42:55;;;;;;;23.75;13.07;;;;;;;-141.50;100.00;63355.56;4914669;29;20582;-79
2021/10/27 01:45:27;;;;;;;29.70;14.07;;;;;;;-141.50;100.00;63355.56;4915323;29;20048;-79
2021/10/27 01:47:55;;;;;;;24.02;13.50;;;;;;;-141.50;100.00;63355.56;4915729;29;20109;-79
2021/10/27 01:50:22;;;;;;;22.13;13.38;;;;;;;-141.50;100.00;63355.56;4914599;29;20036;-78
2021/10/27 01:52:49;;;;;;;23.52;13.68;;;;;;;-141.50;100.00;63355.56;4914879;29;20048;-79
2021/10/27 01:55:15;;;;;;;25.05;13.27;;;;;;;-141.50;100.00;63355.56;4916231;29;20509;-80
2021/10/27 01:57:42;;;;;;;22.48;13.52;;;;;;;-141.50;100.00;63355.56;4914503;29;20509;-80
2021/10/27 02:00:09;;;;;;;29.27;14.05;;;;;;;-141.50;100.00;63355.56;4915303;29;20111;-79
2021/10/27 02:02:36;;;;;;;23.67;12.88;;;;;;;-141.50;100.00;63355.56;4920074;29;20077;-78
2021/10/27 02:05:11;;;;;;;31.58;13.48;;;;;;;-141.50;100.00;63355.56;4925444;29;20100;-77
2021/10/27 02:07:41;;;;;;;21.67;13.35;;;;;;;-141.50;100.00;63355.56;4922340;29;20395;-79
2021/10/27 02:10:10;;;;;;;23.90;13.93;;;;;;;-141.50;100.00;63355.56;4926393;29;20051;-79
2021/10/27 02:12:39;;;;;;;25.05;13.60;;;;;;;-141.50;100.00;63355.56;4925452;29;20040;-78
2021/10/27 02:15:11;;;;;;;25.38;13.80;;;;;;;-141.50;100.00;63355.56;4922873;29;20043;-77
2021/10/27 02:17:39;;;;;;;25.73;14.38;;;;;;;-141.50;100.00;63355.56;4921312;29;20044;-80
2021/10/27 02:20:08;;;;;;;29.60;14.00;;;;;;;-141.50;100.00;63355.56;4918056;29;20095;-78
2021/10/27 02:22:35;;;;;;;28.08;15.43;;;;;;;-141.50;100.00;63355.56;4918043;29;20052;-78
2021/10/27 02:25:03;;;;;;;22.83;15.15;;;;;;;-141.50;100.00;63355.56;4918170;29;20042;-78
2021/10/27 02:27:29;;;;;;;24.60;14.52;;;;;;;-141.50;100.00;63355.56;4915423;29;20048;-78
2021/10/27 02:29:56;;;;;;;31.42;15.00;;;;;;;-141.50;100.00;63355.56;4915822;29;20099;-78
2021/10/27 02:32:22;;;;;;;26.10;14.65;;;;;;;-141.50;100.00;63355.56;4918823;29;20048;-78
2021/10/27 02:34:49;;;;;;;25.30;15.05;;;;;;;-141.50;100.00;63355.56;4928538;29;20048;-78
2021/10/27 02:37:15;;;;;;;30.08;15.73;;;;;;;-141.50;100.00;63355.56;4914760;29;20105;-78
2021/10/27 02:39:42;;;;;;;28.70;14.90;;;;;;;-141.50;100.00;63355.56;4916189;29;20513;-78
2021/10/27 02:42:08;;;;;;;27.65;14.38;;;;;;;-141.50;100.00;63355.56;4915212;29;20048;-78
2021/10/27 02:44:36;;;;;;;26.23;14.75;;;;;;;-141.50;100.00;63355.56;4916429;29;20103;-79
2021/10/27 02:47:03;;;;;;;28.85;15.27;;;;;;;-141.50;100.00;63355.56;4916248;29;20044;-78
2021/10/27 02:49:30;;;;;;;29.88;15.60;;;;;;;-141.50;100.00;63355.56;4914761;29;20043;-77
2021/10/27 02:51:56;;;;;;;28.40;15.23;;;;;;;-141.50;100.00;63355.56;4913575;29;20052;-78
2021/10/27 02:54:23;;;;;;;24.67;14.95;;;;;;;-141.50;100.00;63355.56;4913383;29;20105;-78
2021/10/27 02:56:50;;;;;;;24.48;15.00;;;;;;;-141.50;100.00;63355.56;4914710;29;20047;-79
2021/10/27 02:59:16;;;;;;;29.17;14.82;;;;;;;-141.50;100.00;63355.56;4916209;29;20040;-77
2021/10/27 03:01:43;;;;;;;25.10;14.98;;;;;;;-141.50;100.00;63355.56;4899093;29;20064;-78
2021/10/27 03:04:10;;;;;;;27.85;14.73;;;;;;;-141.50;100.00;63355.56;4915257;29;20467;-79
2021/10/27 03:06:37;;;;;;;28.27;16.20;;;;;;;-141.50;100.00;63355.56;4897776;29;20044;-78
2021/10/27 03:09:03;;;;;;;26.83;15.35;;;;;;;-141.50;100.00;63355.56;4914134;29;20059;-79
2021/10/27 03:11:30;;;;;;;27.00;15.52;;;;;;;-141.50;100.00;63355.56;4929980;29;20063;-78
2021/10/27 03:13:58;;;;;;;27.70;15.43;;;;;;;-141.50;100.00;63355.56;4915539;29;20051;-79
2021/10/27 03:16:25;;;;;;;28.02;15.88;;;;;;;-141.50;100.00;63355.56;4912829;29;20663;-79
2021/10/27 03:18:51;;;;;;;29.27;15.65;;;;;;;-141.50;100.00;63355.56;4916142;29;20042;-78
2021/10/27 03:21:18;;;;;;;25.83;15.50;;;;;;;-141.50;100.00;63355.56;4915032;29;20052;-79
2021/10/27 03:23:44;;;;;;;27.38;16.67;;;;;;;-141.50;100.00;63355.56;4914929;29;20044;-79
2021/10/27 03:26:11;;;;;;;30.17;15.68;;;;;;;-141.50;100.00;63355.56;4915083;29;20036;-78
2021/10/27 03:28:38;;;;;;;26.77;14.93;;;;;;;-141.50;100.00;63355.56;4914968;29;20485;-79
2021/10/27 03:31:05;;;;;;;25.30;14.07;;;;;;;-141.50;100.00;63355.56;4912598;29;20048;-79
2021/10/27 03:33:32;;;;;;;26.38;14.55;;;;;;;-141.50;100.00;63355.56;4903886;29;20036;-79
2021/10/27 03:35:58;;;;;;;27.52;14.80;;;;;;;-141.50;100.00;63355.56;4904901;29;20060;-79
2021/10/27 03:38:25;;;;;;;23.58;14.27;;;;;;;-141.50;100.00;63355.56;4915453;29;20143;-79
2021/10/27 03:40:52;;;;;;;27.63;14.35;;;;;;;-141.50;100.00;63355.56;4916228;29;20040;-78
2021/10/27 03:43:19;;;;;;;24.65;14.40;;;;;;;-141.50;100.00;63355.56;4915937;29;20044;-79
2021/10/27 03:45:45;;;;;;;26.60;14.95;;;;;;;-141.50;100.00;63355.56;4916406;29;20545;-79
2021/10/27 03:48:12;;;;;;;30.42;15.23;;;;;;;-141.50;100.00;63355.56;4915179;29;20048;-77
2021/10/27 03:50:40;;;;;;;25.88;14.18;;;;;;;-141.50;100.00;63355.56;4918097;29;20044;-79
2021/10/27 03:53:09;;;;;;;24.88;14.55;;;;;;;-141.50;100.00;63355.56;4914980;29;20040;-78
2021/10/27 03:55:36;;;;;;;30.50;14.30;;;;;;;-141.50;100.00;63355.56;4914401;29;20044;-78
2021/10/27 03:58:03;;;;;;;23.88;13.55;;;;;;;-141.50;100.00;63355.56;4912340;29;20052;-77
2021/10/27 04:00:30;;;;;;;27.45;13.68;;;;;;;-141.50;100.00;63355.56;4898085;29;20560;-78
2021/10/27 04:02:57;;;;;;;23.42;13.15;;;;;;;-141.50;100.00;63355.56;4895327;29;20130;-77
2021/10/27 04:05:24;;;;;;;26.15;12.90;;;;;;;-141.50;100.00;63355.56;4897904;29;20051;-78
2021/10/27 04:07:51;;;;;;;21.55;12.13;;;;;;;-141.50;100.00;63355.56;4896306;29;20054;-77
2021/10/27 04:10:22;;;;;;;24.40;12.60;;;;;;;-141.50;100.00;63355.56;4905585;29;20052;-77
2021/10/27 04:12:58;;;;;;;20.58;12.27;;;;;;;-141.50;100.00;63355.56;4899228;29;20059;-78
2021/10/27 04:15:25;;;;;;;20.35;12.20;;;;;;;-141.50;100.00;63355.56;4899123;29;20048;-77
2021/10/27 04:17:51;;;;;;;22.60;12.20;;;;;;;-141.50;100.00;63355.56;4898952;29;20044;-78
2021/10/27 04:20:18;;;;;;;21.02;11.75;;;;;;;-141.50;100.00;63355.56;4915014;29;20080;-78
2021/10/27 04:22:45;;;;;;;22.27;12.55;;;;;;;-141.50;100.00;63355.56;4898796;29;20100;-78
2021/10/27 04:25:12;;;;;;;21.98;12.48;;;;;;;-141.50;100.00;63355.56;4899794;29;20513;-78
2021/10/27 04:27:39;;;;;;;20.33;11.93;;;;;;;-141.50;100.00;63355.56;4899546;29;20170;-78
2021/10/27 04:30:07;;;;;;;19.67;11.35;;;;;;;-141.50;100.00;63355.56;4901297;29;20043;-78
2021/10/27 04:32:34;;;;;;;18.60;11.57;;;;;;;-141.50;100.00;63355.56;4900083;29;20058;-77
2021/10/27 04:35:01;;;;;;;26.92;12.57;;;;;;;-141.50;100.00;63355.56;4911688;29;20052;-78
2021/10/27 04:37:32;;;;;;;19.15;11.00;;;;;;;-141.50;100.00;63355.56;4897169;29;20044;-77
2021/10/27 04:40:03;;;;;;;17.50;10.77;;;;;;;-141.50;100.00;63355.56;4914111;29;20449;-78
2021/10/27 04:42:30;;;;;;;22.95;11.43;;;;;;;-141.50;100.00;63355.56;4917975;23;20505;-84
2021/10/27 04:44:57;;;;;;;19.92;10.15;;;;;;;-141.50;100.00;63355.56;4920514;29;20257;-84
2021/10/27 04:47:24;;;;;;;24.20;10.90;;;;;;;-141.50;100.00;63355.56;4896882;29;20052;-86
2021/10/27 04:49:51;;;;;;;19.95;10.38;;;;;;;-141.50;100.00;63355.56;4906907;29;20075;-85
2021/10/27 04:52:17;;;;;;;20.30;10.90;;;;;;;-141.50;100.00;63355.56;4906575;29;20060;-86
2021/10/27 04:54:44;;;;;;;15.88;10.32;;;;;;;-141.50;100.00;63355.56;4906667;29;20056;-86
2021/10/27 04:57:11;;;;;;;19.92;11.18;;;;;;;-141.50;100.00;63355.56;4924244;23;20543;-81
2021/10/27 04:59:44;;;;;;;19.75;11.23;;;;;;;-141.50;100.00;63355.56;4920064;29;20796;-80
2021/10/27 05:02:13;;;;;;;16.70;10.55;;;;;;;-141.50;100.00;63355.56;4917282;29;20543;-79
2021/10/27 05:04:44;;;;;;;20.88;10.68;;;;;;;-141.50;100.00;63355.56;4917567;29;20389;-83
2021/10/27 05:07:13;;;;;;;20.05;11.00;;;;;;;-141.50;100.00;63355.56;4900825;29;20109;-82
2021/10/27 05:09:41;;;;;;;19.08;10.32;;;;;;;-141.50;100.00;63355.56;4918181;29;20044;-81
2021/10/27 05:12:10;;;;;;;22.08;11.00;;;;;;;-141.50;100.00;63355.56;4917109;29;20104;-79
2021/10/27 05:14:38;;;;;;;17.85;10.02;;;;;;;-141.50;100.00;63355.56;4898900;29;20059;-81
2021/10/27 05:17:09;;;;;;;17.60;10.25;;;;;;;-141.50;100.00;63355.56;4916773;29;20123;-80
2021/10/27 05:19:40;;;;;;;17.73;9.95;;;;;;;-141.50;100.00;63355.56;4901284;29;20401;-79
2021/10/27 05:22:08;;;;;;;20.27;10.57;;;;;;;-141.50;100.00;63355.56;4918811;29;20112;-80
2021/10/27 05:24:35;;;;;;;17.65;10.07;;;;;;;-141.50;100.00;63355.56;4901807;29;20063;-79
2021/10/27 05:27:04;;;;;;;18.35;9.80;;;;;;;-141.50;100.00;63355.56;4900732;29;20063;-83
2021/10/27 05:29:31;;;;;;;22.50;10.98;;;;;;;-141.50;100.00;63355.56;4900640;29;20067;-83
2021/10/27 05:31:58;;;;;;;24.17;10.55;;;;;;;-141.50;100.00;63355.56;4917016;29;20055;-79
2021/10/27 05:34:25;;;;;;;17.73;10.13;;;;;;;-141.50;100.00;63355.56;4917662;29;20222;-83
2021/10/27 05:36:51;;;;;;;22.10;10.20;;;;;;;-141.50;100.00;63355.56;4899065;29;20048;-79
2021/10/27 05:39:18;;;;;;;18.55;9.02;;;;;;;-141.50;100.00;63355.56;4899891;29;20084;-83
2021/10/27 05:41:46;;;;;;;17.83;9.77;;;;;;;-141.50;100.00;63355.56;4917540;29;20043;-81
2021/10/27 05:44:14;;;;;;;20.73;9.93;;;;;;;-141.50;100.00;63355.56;4916660;29;20052;-82
2021/10/27 05:46:42;;;;;;;19.83;9.77;;;;;;;-141.50;100.00;63355.56;4900649;29;20048;-83
2021/10/27 05:52:03;;;;;;;17.00;10.25;;;;;;;-141.50;100.00;63355.56;4916592;29;20279;-78
2021/10/27 05:57:15;;;;;;;20.40;9.33;;;;;;;-141.50;100.00;63355.56;4920286;29;20409;-83
2021/10/27 05:59:44;;;;;;;15.55;9.00;;;;;;;-141.50;100.00;63355.56;4913755;29;20311;-80
2021/10/27 06:02:10;;;;;;;17.17;8.90;;;;;;;-141.50;100.00;63355.56;4916203;29;20047;-81
2021/10/27 06:04:37;;;;;;;16.23;8.38;;;;;;;-141.50;100.00;63355.56;4916627;29;20055;-83
2021/10/27 06:07:03;;;;;;;16.85;8.73;;;;;;;-141.50;100.00;63355.56;4916120;29;20043;-81
2021/10/27 06:09:30;;;;;;;17.83;8.82;;;;;;;-141.50;100.00;63355.56;4930922;29;20060;-81
2021/10/27 06:12:03;;;;;;;14.32;8.57;;;;;;;-141.50;100.00;63355.56;4915355;29;20044;-80
2021/10/27 06:14:31;;;;;;;20.92;8.35;;;;;;;-141.50;100.00;63355.56;4898729;29;20055;-81
2021/10/27 06:16:58;;;;;;;14.50;8.05;;;;;;;-141.50;100.00;63355.56;4915471;29;20304;-83
2021/10/27 06:19:24;;;;;;;14.63;8.30;;;;;;;-141.50;100.00;63355.56;4898548;29;20056;-81
2021/10/27 06:21:51;;;;;;;14.77;7.07;;;;;;;-141.50;100.00;63355.56;4921533;29;20040;-81
2021/10/27 06:24:18;;;;;;;10.30;6.85;;;;;;;-141.50;100.00;63355.56;4916345;29;20104;-82
2021/10/27 06:26:44;;;;;;;17.52;7.60;;;;;;;-141.50;100.00;63355.56;4915132;29;20496;-82
2021/10/27 06:29:29;;;;;;;10.90;7.03;;;;;;;-141.50;100.00;63355.56;4916375;29;20052;-80
2021/10/27 06:32:09;;;;;;;12.85;7.10;;;;;;;-141.50;100.00;63355.56;4916795;29;20047;-82
2021/10/27 06:34:45;;;;;;;11.75;7.20;;;;;;;-141.50;100.00;63355.56;4914832;29;20055;-82
2021/10/27 06:48:13;;;;;;;12.25;7.35;;;;;;;-141.50;100.00;63355.56;4915853;29;20765;-82
2021/10/27 06:51:00;;;;;;;10.65;6.93;;;;;;;-141.50;100.00;63355.56;4929320;29;20095;-82
2021/10/27 06:53:29;;;;;;;13.82;6.75;;;;;;;-141.50;100.00;63355.56;4930681;29;20048;-84
2021/10/27 06:55:56;;;;;;;13.50;6.63;;;;;;;-141.50;100.00;63355.56;4915840;29;20040;-84
2021/10/27 06:58:23;;;;;;;11.60;6.00;;;;;;;-141.50;100.00;63355.56;4930029;29;20051;-82
2021/10/27 07:00:54;;;;;;;14.80;7.15;;;;;;;-141.50;100.00;63355.56;4930685;29;20044;-80
2021/10/27 07:03:41;;;;;;;10.45;6.25;;;;;;;-141.50;100.00;63355.56;4899055;29;20051;-83
2021/10/27 07:06:34;;;;;;;12.52;6.18;;;;;;;-141.50;100.00;63355.56;4915434;29;20104;-81
2021/10/27 07:17:15;;;;;;;12.52;6.70;;;;;;;-141.50;100.00;63355.56;4915917;29;20048;-82
2021/10/27 07:19:42;;;;;;;9.90;6.53;;;;;;;-141.50;100.00;63355.56;4915942;29;20075;-84
2021/10/27 07:22:13;;;;;;;13.82;7.00;;;;;;;-141.50;100.00;63355.56;4898847;29;20044;-81
2021/10/27 07:24:43;;;;;;;11.93;7.05;;;;;;;-141.50;100.00;63355.56;4915883;29;20144;-82
2021/10/27 07:27:11;;;;;;;14.40;7.53;;;;;;;-141.50;100.00;63355.56;4914692;29;20044;-84
2021/10/27 07:29:41;;;;;;;13.02;7.07;;;;;;;-141.50;100.00;63355.56;4898360;29;20059;-82
2021/10/27 07:32:11;;;;;;;15.98;7.25;;;;;;;-141.50;100.00;63355.56;4915883;29;20071;-83
2021/10/27 07:34:41;;;;;;;12.60;6.82;;;;;;;-141.50;100.00;63355.56;4929978;29;20048;-82
2021/10/27 07:42:47;;;;;;;12.55;6.95;;;;;;;-141.50;100.00;63355.56;4925398;29;20052;-79
2021/10/27 07:45:18;;;;;;;12.32;6.80;;;;;;;-141.50;100.00;63355.56;4893288;29;20128;-82
2021/10/27 07:47:46;;;;;;;13.68;7.32;;;;;;;-141.50;100.00;63355.56;4908507;29;20080;-83
2021/10/27 07:50:33;;;;;;;13.68;7.68;;;;;;;-141.50;100.00;63355.56;4908351;29;20048;-81
2021/10/27 07:53:05;;;;;;;13.15;6.20;;;;;;;-141.50;100.00;63355.56;4909063;29;20409;-82
2021/10/27 07:55:46;;;;;;;11.77;6.22;;;;;;;-141.50;100.00;63355.56;4892599;29;20052;-83
2021/10/27 07:58:34;;;;;;;14.18;6.10;;;;;;;-141.50;100.00;63355.56;4919939;29;20048;-82
2021/10/27 08:01:01;;;;;;;10.40;6.30;;;;;;;-141.50;100.00;63355.56;4903110;29;20134;-82
2021/10/27 08:03:29;;;;;;;12.30;6.38;;;;;;;-141.50;100.00;63355.56;4933686;29;20134;-82
2021/10/27 08:05:59;;;;;;;12.20;6.20;;;;;;;-141.50;100.00;63355.56;4902975;29;20071;-81
2021/10/27 08:08:31;;;;;;;9.50;5.72;;;;;;;-141.50;100.00;63355.56;4934273;29;20508;-82
2021/10/27 08:10:58;;;;;;;10.52;5.57;;;;;;;-141.50;100.00;63355.56;4902018;29;20070;-82
2021/10/27 08:13:25;;;;;;;8.98;5.53;;;;;;;-141.50;100.00;63355.56;4933233;29;20083;-83
2021/10/27 08:15:52;;;;;;;10.27;5.65;;;;;;;-141.50;100.00;63355.56;4933530;29;20048;-83
2021/10/27 08:18:19;;;;;;;11.85;5.45;;;;;;;-141.50;100.00;63355.56;4919527;29;20501;-83
2021/10/27 08:20:46;;;;;;;10.88;5.20;;;;;;;-141.50;100.00;63355.56;4918964;29;20048;-82
2021/10/27 08:23:15;;;;;;;10.73;5.00;;;;;;;-141.50;100.00;63355.56;4933713;29;20148;-83
2021/10/27 08:25:49;;;;;;;9.23;5.50;;;;;;;-141.50;100.00;63355.56;4933182;29;20052;-81
2021/10/27 08:28:19;;;;;;;11.82;5.55;;;;;;;-141.50;100.00;63355.56;4933717;29;20071;-82
2021/10/27 08:31:05;;;;;;;10.65;5.18;;;;;;;-141.50;100.00;63355.56;4922233;29;20048;-79
2021/10/27 08:36:03;;;;;;;6.65;4.82;;;;;;;-141.50;100.00;63355.56;4929315;29;20104;-79
2021/10/27 08:38:29;;;;;;;9.60;5.35;;;;;;;-141.50;100.00;63355.56;4947481;29;20058;-78
2021/10/27 08:40:57;;;;;;;10.45;5.00;;;;;;;-141.50;100.00;63355.56;4933022;29;20108;-79
2021/10/27 08:43:25;;;;;;;7.82;5.00;;;;;;;-141.50;100.00;63355.56;4913935;29;20076;-79
2021/10/27 08:45:52;;;;;;;8.85;5.13;;;;;;;-141.50;100.00;63355.56;4930135;29;20076;-79
2021/10/27 08:48:19;;;;;;;9.63;4.88;;;;;;;-141.50;100.00;63355.56;4914799;29;20048;-78
2021/10/27 08:50:48;;;;;;;11.02;5.22;;;;;;;-141.50;100.00;63355.56;4943805;29;20089;-78
2021/10/27 08:53:20;;;;;;;9.23;4.82;;;;;;;-141.50;100.00;63355.56;4930036;29;20052;-79
2021/10/27 08:55:49;;;;;;;12.23;4.72;;;;;;;-141.50;100.00;63355.56;4927052;29;20048;-79
2021/10/27 08:58:28;;;;;;;10.93;5.75;;;;;;;-141.50;100.00;63355.56;4926948;29;20233;-79
2021/10/27 09:03:51;;;;;;;10.30;6.15;;;;;;;-141.50;100.00;63355.56;4922022;29;20055;-77
2021/10/27 09:06:41;;;;;;;10.73;5.93;;;;;;;-141.50;100.00;63355.56;4921325;29;20055;-77
2021/10/27 09:15:51;;;;;;;9.90;6.50;;;;;;;-141.50;100.00;63355.56;4920240;29;20058;-80
2021/10/27 09:44:31;;;;;;;9.68;6.30;;;;;;;-141.50;100.00;63355.56;4925476;29;20048;-80
2021/10/27 10:04:26;;;;;;;9.07;5.13;;;;;;;-141.50;100.00;63355.56;4922502;29;20062;-80
2021/10/27 10:06:59;;;;;;;10.50;5.50;;;;;;;-141.50;100.00;63355.56;4934719;29;20218;-81
2021/10/27 10:09:28;;;;;;;7.32;4.75;;;;;;;-141.50;100.00;63355.56;4888049;29;20058;-80
2021/10/27 10:12:00;;;;;;;8.95;4.97;;;;;;;-141.50;100.00;63355.56;4918580;29;20614;-80
2021/10/27 10:14:29;;;;;;;9.00;4.85;;;;;;;-141.50;100.00;63355.56;4902094;29;20091;-82
2021/10/27 10:17:01;;;;;;;7.72;4.57;;;;;;;-141.50;100.00;63355.56;4918721;29;20055;-79
2021/10/27 10:19:33;;;;;;;6.90;4.45;;;;;;;-141.50;100.00;63355.56;4919404;29;20040;-81
2021/10/27 10:21:59;;;;;;;9.18;4.50;;;;;;;-141.50;100.00;63355.56;4917085;29;20044;-78
2021/10/27 10:24:33;;;;;;;7.63;4.85;;;;;;;-141.50;100.00;63355.56;4918220;29;20503;-83
2021/10/27 10:27:07;;;;;;;7.90;4.80;;;;;;;-141.50;100.00;63355.56;4934592;29;20088;-81
2021/10/27 10:29:39;;;;;;;8.30;4.50;;;;;;;-141.50;100.00;63355.56;4903669;29;20059;-80
2021/10/27 10:32:18;;;;;;;7.97;3.63;;;;;;;-141.50;100.00;63355.56;4902401;29;20187;-82
2021/10/27 10:34:48;;;;;;;7.80;4.00;;;;;;;-141.50;100.00;63355.56;4935566;29;20052;-81
2021/10/27 10:40:35;;;;;;;8.43;3.78;;;;;;;-141.50;100.00;63355.56;4916018;29;20063;-82
2021/10/27 10:57:22;;;;;;;4.00;2.80;;;;;;;-141.50;100.00;63355.56;4938909;23;20057;-83
2021/10/27 11:22:25;;;;;;;3.70;2.80;;;;;;;-141.50;100.00;63355.56;4899577;29;19999;-81
2021/10/27 11:25:54;;;;;;;;;;;;;;;-141.50;100.00;63355.56;4898585;29;20067;-82
2021/10/27 11:47:39;;;;;;;5.72;3.78;;;;;;;-141.50;100.00;63355.56;4895723;29;20134;-85
2021/10/27 11:50:07;;;;;;;8.23;3.80;;;;;;;-141.50;100.00;63355.56;4878499;29;20052;-83
2021/10/27 11:52:42;;;;;;;6.22;3.53;;;;;;;-141.50;100.00;63355.56;4880119;29;20097;-83
2021/10/27 11:55:11;;;;;;;7.72;4.13;;;;;;;-141.50;100.00;63355.56;4896601;29;20100;-82
2021/10/27 11:57:39;;;;;;;6.72;3.47;;;;;;;-141.50;100.00;63355.56;4881005;29;20060;-82
2021/10/27 12:00:23;;;;;;;7.40;3.78;;;;;;;-141.50;100.00;63355.56;4899897;29;20112;-84
2021/10/27 12:03:09;;;;;;;8.70;4.32;;;;;;;-141.50;100.00;63355.56;4880390;29;20123;-84
2021/10/27 12:06:06;;;;;;;8.30;4.35;;;;;;;-141.50;100.00;63355.56;4894492;29;20061;-83
2021/10/27 12:11:33;;;;;;;6.22;4.28;;;;;;;-141.50;100.00;63355.56;4895955;29;20056;-87
2021/10/27 12:14:35;;;;;;;7.88;4.13;;;;;;;-141.50;100.00;63355.56;4896322;29;20419;-81
2021/10/27 12:17:37;;;;;;;6.57;3.60;;;;;;;-141.50;100.00;63355.56;4881043;29;20057;-81
2021/10/27 12:20:04;;;;;;;7.70;4.05;;;;;;;-141.50;100.00;63355.56;4879847;29;20087;-83
2021/10/27 12:22:32;;;;;;;4.50;2.83;;;;;;;-141.50;100.00;63355.56;4879896;29;20139;-83
2021/10/27 12:25:05;;;;;;;5.13;3.33;;;;;;;-141.50;100.00;63355.56;4886625;29;20085;-81
2021/10/27 12:27:38;;;;;;;5.63;3.58;;;;;;;-141.50;100.00;63355.56;4886078;29;20139;-84
2021/10/27 12:30:14;;;;;;;5.85;4.07;;;;;;;-141.50;100.00;63355.56;4901487;29;20059;-82
2021/10/27 12:32:55;;;;;;;6.72;4.00;;;;;;;-141.50;100.00;63355.56;4884265;29;20063;-83
2021/10/27 12:35:26;;;;;;;7.32;4.25;;;;;;;-141.50;100.00;63355.56;4883784;29;20379;-84
2021/10/27 12:38:15;;;;;;;7.28;4.22;;;;;;;-141.50;100.00;63355.56;4881143;29;20048;-83
2021/10/27 12:40:44;;;;;;;5.05;3.75;;;;;;;-141.50;100.00;63355.56;4884274;29;20045;-82
2021/10/27 12:43:18;;;;;;;5.78;3.28;;;;;;;-141.50;100.00;63355.56;4881822;29;20048;-83
2021/10/27 12:45:55;;;;;;;6.65;3.20;;;;;;;-141.50;100.00;63355.56;4882500;29;20084;-82
2021/10/27 12:48:41;;;;;;;4.47;3.08;;;;;;;-141.50;100.00;63355.56;4898851;29;20076;-83
2021/10/27 12:51:12;;;;;;;4.97;2.90;;;;;;;-141.50;100.00;63355.56;4898675;29;20049;-81
2021/10/27 12:53:50;;;;;;;5.35;3.13;;;;;;;-141.50;100.00;63355.56;4884984;29;20048;-83
2021/10/27 12:56:30;;;;;;;6.38;3.35;;;;;;;-141.50;100.00;63355.56;4910332;29;20052;-82
2021/10/27 12:59:02;;;;;;;8.30;3.72;;;;;;;-141.50;100.00;63355.56;4885036;29;20064;-82
2021/10/27 13:01:42;;;;;;;5.03;3.47;;;;;;;-141.50;100.00;63355.56;4886809;29;20084;-83
2021/10/27 13:07:03;;;;;;;5.68;3.38;;;;;;;-141.50;100.00;63355.56;4906556;29;20529;-82
2021/10/27 13:12:56;;;;;;;8.52;3.92;;;;;;;-141.50;100.00;63355.56;4903208;29;20045;-82
2021/10/27 13:15:13;;;;;;;5.93;4.22;;;;;;;-141.50;100.00;63355.56;4902718;29;20063;-83
2021/10/27 13:20:31;;;;;;;6.38;4.38;;;;;;;-141.50;100.00;63355.56;4898239;29;20056;-82
2021/10/27 13:31:01;;;;;;;6.87;4.80;;;;;;;-141.50;100.00;63355.56;4895565;29;20113;-83
2021/10/27 13:33:29;;;;;;;5.72;4.78;;;;;;;-141.50;100.00;63355.56;4879702;29;20143;-83
2021/10/27 13:35:56;;;;;;;6.43;4.57;;;;;;;-141.50;100.00;63355.56;4878807;29;20458;-82
2021/10/27 13:38:26;;;;;;;6.47;4.70;;;;;;;-141.50;100.00;63355.56;4879476;29;20523;-83
2021/10/27 13:40:54;;;;;;;6.45;4.25;;;;;;;-141.50;100.00;63355.56;4878344;29;20147;-83
2021/10/27 13:43:31;;;;;;;6.05;4.35;;;;;;;-141.50;100.00;63355.56;4878756;29;20135;-82
2021/10/27 13:46:27;;;;;;;6.65;3.60;;;;;;;-141.50;100.00;63355.56;4880612;29;20096;-82
2021/10/27 14:08:07;;;;;;;5.17;3.27;;;;;;;-141.50;100.00;63355.56;4894744;29;20155;-83
2021/10/27 14:18:40;;;;;;;7.10;3.70;;;;;;;-141.50;100.00;63355.56;4894303;29;20048;-82
2021/10/27 15:22:07;;;;;;;6.90;4.13;;;;;;;-141.50;100.00;63355.56;4880755;29;20063;-82
2021/10/27 15:51:32;;;;;;;;;;;;;;;-141.50;100.00;63355.56;4884745;29;20120;-83
2021/10/27 15:53:59;;;;;;;6.30;3.60;;;;;;;-141.50;100.00;63355.56;4881190;29;19963;-83